Terminal Aerodrome Forecast
Issued by NWS

Current Version | Previous Version | Text Only | Print | Product List | Glossary On
Versions: 1 2 3 4 5 6 7 8 9 10 11 12 13
449
FTUS42 TJSJ 100522
TAFIST
TAF
TIST 100522Z 1006/1106 08007KT P6SM VCSH SKC
     FM101300 08010KT P6SM SCT030
     FM102300 09007KT P6SM FEW025=

USA.gov is the U.S. government's official web portal to all federal, state and local government web resources and services.